Observations météo à Biache-Saint-Vaast

Accéder au site du propriétaire


Heure loc. TempératurePoint de roséeHumiditéVent (km/h)PressionPrécips.HumidexWindchill
moy.raf.dir.
07:10-2.7 °C-6.4 °C73 %0.0 0.0 1032.0 hPa0.0 mm------
07:05-2.7 °C-6.4 °C73 %0.0 0.0 1032.0 hPa0.0 mm------
07:00-2.6 °C-6.1 °C74 %0.0 0.0 1032.0 hPa0.0 mm------
06:55-2.5 °C-6.0 °C74 %0.0 0.0 1032.0 hPa0.0 mm------
06:50-2.5 °C-6.2 °C73 %0.0 3.6 1032.0 hPa0.0 mm------
06:45-2.6 °C-6.3 °C73 %0.0 0.0 1032.0 hPa0.0 mm------
06:40-2.6 °C-6.3 °C73 %0.0 0.0 1032.0 hPa0.0 mm------
06:35-2.5 °C-6.2 °C73 %0.0 0.0 1032.0 hPa0.0 mm------
06:30-2.5 °C-6.0 °C74 %0.0 2.9 1032.0 hPa0.0 mm------
06:25-2.4 °C-5.9 °C74 %2.5 2.5 1032.0 hPa0.0 mm------
06:20-2.4 °C-5.9 °C74 %0.0 0.0 1032.0 hPa0.0 mm------
06:15-2.3 °C-5.8 °C74 %0.0 0.0 1032.0 hPa0.0 mm------
06:10-2.3 °C-5.8 °C74 %0.0 0.0 1032.0 hPa0.0 mm------
06:05-2.3 °C-5.8 °C74 %0.0 0.0 1032.0 hPa0.0 mm------
06:00-2.3 °C-5.8 °C74 %0.0 0.0 1032.0 hPa0.0 mm------
05:55-2.2 °C-5.5 °C75 %0.0 4.0 1031.0 hPa0.0 mm------
05:50-2.3 °C-5.6 °C75 %4.0 4.0 1031.0 hPa0.0 mm------
05:45-2.4 °C-5.7 °C75 %0.0 2.9 1031.0 hPa0.0 mm------
05:40-2.6 °C-5.9 °C75 %2.9 4.3 1031.0 hPa0.0 mm------
05:35-2.8 °C-6.0 °C76 %0.0 0.0 1031.0 hPa0.0 mm------
05:30-2.8 °C-6.1 °C75 %0.0 0.0 1031.0 hPa0.0 mm------
05:25-2.9 °C-6.1 °C76 %0.0 0.0 1032.0 hPa0.0 mm------
05:20-3.0 °C-6.3 °C75 %1.4 1.4 1032.0 hPa0.0 mm------
05:15-3.1 °C-6.4 °C75 %0.0 0.0 1032.0 hPa0.0 mm------
05:10-3.0 °C-6.3 °C75 %0.0 0.0 1032.0 hPa0.0 mm------
05:05-3.1 °C-6.4 °C75 %0.0 0.0 1032.0 hPa0.0 mm------
05:00-3.1 °C-6.4 °C75 %0.0 0.0 1032.0 hPa0.0 mm------
04:55-3.1 °C-6.4 °C75 %0.0 0.0 1032.0 hPa0.0 mm------
04:50-3.1 °C-6.2 °C76 %0.0 0.0 1032.0 hPa0.0 mm------
04:45-3.1 °C-6.2 °C76 %0.0 0.0 1032.0 hPa0.0 mm------
04:40-3.1 °C-6.2 °C76 %0.0 0.0 1032.0 hPa0.0 mm------
04:35-3.1 °C-6.2 °C76 %0.0 0.0 1032.0 hPa0.0 mm------
04:30-3.0 °C-6.1 °C76 %0.0 0.0 1032.0 hPa0.0 mm------
04:25-2.9 °C-6.1 °C76 %0.0 0.0 1032.0 hPa0.0 mm------
04:20-2.9 °C-6.1 °C76 %0.0 0.0 1032.0 hPa0.0 mm------
04:15-2.9 °C-6.1 °C76 %0.0 1.4 1032.0 hPa0.0 mm------
04:10-2.9 °C-5.7 °C78 %0.0 2.9 1032.0 hPa0.0 mm------
04:05-2.9 °C-6.1 °C76 %3.6 3.6 1032.0 hPa0.0 mm------
04:00-2.9 °C-6.1 °C76 %2.5 2.5 1032.0 hPa0.0 mm------
03:55-2.8 °C-5.6 °C78 %0.0 0.0 1032.0 hPa0.0 mm------
03:50-2.8 °C-5.6 °C78 %0.0 2.9 1032.0 hPa0.0 mm------
03:45-3.0 °C-6.1 °C76 %1.4 1.4 1032.0 hPa0.0 mm------
03:40-3.0 °C-6.3 °C75 %0.0 0.0 1032.0 hPa0.0 mm------
03:35-3.0 °C-6.3 °C75 %0.0 0.0 1032.0 hPa0.0 mm------
03:30-3.0 °C-6.3 °C75 %0.0 0.0 1032.0 hPa0.0 mm------
03:25-3.0 °C-6.3 °C75 %0.0 0.0 1032.0 hPa0.0 mm------
03:20-2.9 °C-6.2 °C75 %0.0 0.0 1032.0 hPa0.0 mm------
03:15-2.8 °C-6.1 °C75 %0.0 0.0 1032.0 hPa0.0 mm------
03:10-2.7 °C-6.0 °C75 %0.0 0.0 1032.0 hPa0.0 mm------
03:05-2.7 °C-6.0 °C75 %0.0 0.0 1032.0 hPa0.0 mm------
03:00-2.7 °C-6.0 °C75 %0.0 0.0 1032.0 hPa0.0 mm------
02:55-2.7 °C-6.0 °C75 %0.0 0.0 1033.0 hPa0.0 mm------
02:50-2.6 °C-5.9 °C75 %0.0 0.0 1033.0 hPa0.0 mm------
02:45-2.7 °C-6.0 °C75 %0.0 0.0 1033.0 hPa0.0 mm------
02:40-2.8 °C-6.1 °C75 %0.0 0.0 1033.0 hPa0.0 mm------
02:35-2.7 °C-6.0 °C75 %0.0 0.0 1033.0 hPa0.0 mm------
02:30-2.7 °C-6.0 °C75 %0.0 0.0 1033.0 hPa0.0 mm------
02:25-2.6 °C-5.9 °C75 %0.0 0.0 1033.0 hPa0.0 mm------
02:20-2.5 °C-5.8 °C75 %0.0 0.0 1033.0 hPa0.0 mm------
02:15-2.5 °C-5.8 °C75 %0.0 0.0 1033.0 hPa0.0 mm------
02:10-2.5 °C-5.8 °C75 %2.5 3.6 1033.0 hPa0.0 mm------
02:05-2.6 °C-6.1 °C74 %0.0 0.0 1033.0 hPa0.0 mm------
02:00-2.6 °C-6.1 °C74 %0.0 0.0 1033.0 hPa0.0 mm------
01:55-2.5 °C-6.0 °C74 %0.0 0.0 1033.0 hPa0.0 mm------
01:50-2.4 °C-5.9 °C74 %0.0 0.0 1033.0 hPa0.0 mm------
01:45-2.4 °C-5.9 °C74 %0.0 0.0 1033.0 hPa0.0 mm------
01:40-2.4 °C-6.1 °C73 %0.0 2.5 1033.0 hPa0.0 mm------
01:35-2.3 °C-6.0 °C73 %0.0 0.0 1033.0 hPa0.0 mm------
01:30-2.2 °C-5.9 °C73 %0.0 0.0 1033.0 hPa0.0 mm------
01:25-2.2 °C-5.9 °C73 %0.0 0.0 1033.0 hPa0.0 mm------
01:20-2.2 °C-5.9 °C73 %0.0 0.0 1033.0 hPa0.0 mm------
01:15-2.1 °C-5.8 °C73 %0.0 0.0 1033.0 hPa0.0 mm------
01:10-2.1 °C-5.8 °C73 %0.0 0.0 1033.0 hPa0.0 mm------
01:05-2.0 °C-5.7 °C73 %0.0 0.0 1033.0 hPa0.0 mm------
01:00-2.0 °C-5.7 °C73 %0.0 0.0 1033.0 hPa0.0 mm------
00:55-2.0 °C-5.7 °C73 %0.0 0.0 1033.0 hPa0.0 mm------
00:50-1.9 °C-5.6 °C73 %0.0 0.0 1033.0 hPa0.0 mm------
00:45-1.9 °C-5.6 °C73 %0.0 0.0 1033.0 hPa0.0 mm------
00:40-1.8 °C-5.5 °C73 %0.0 0.0 1033.0 hPa0.0 mm------
00:35-1.8 °C-5.5 °C73 %0.0 0.0 1033.0 hPa0.0 mm------
00:30-1.7 °C-5.4 °C73 %0.0 0.0 1033.0 hPa0.0 mm------
00:25-1.6 °C-5.5 °C72 %0.0 0.0 1033.0 hPa0.0 mm------
00:20-1.6 °C-5.5 °C72 %0.0 0.0 1033.0 hPa0.0 mm------
00:15-1.6 °C-5.5 °C72 %0.0 0.0 1033.0 hPa---------
00:10-1.7 °C-5.6 °C72 %0.0 0.0 1033.0 hPa---------
00:05-1.7 °C-5.6 °C72 %0.0 0.0 1033.0 hPa---------
00:00-1.6 °C-5.5 °C72 %0.0 0.0 1033.0 hPa0.0 mm------

Dernier relevé - 09/02/2023 07:10


  Température
-2.7 °C
  Point de rosée
-6.4 °C
  Humidité
73 %
  Vent moyen
0.0 km/h
  Vent rafale
0.0 km/h
  Pression
1032.0 hPa
  Pluie depuis le dernier relevé
0.0 mm


Extremums du jour


  Température
Min. -3.1°C à 04:35 loc.
Max. -1.6°C à 00:00 loc.
  Vent
Max. 4.3km/h à 05:40 loc.
  Précipitations
Aujourd'hui 0.0mm

Coordonnées: lat 50.3117, lon 2.94404

Altitude: 49m

Catégorie: Amateur

Station WMR88

Fréquence d'actualisation 5m

Accéder au site du propriétaire